Parker, Washington
Current Conditions -  °F | °C
As of 5:53 AM on Monday 26 Jan 2015 (Local Time) from KYKM Reporting Station
Moderate Fog Moderate Fog  
Wind Chill: 35°   Ceiling: 200
Heat Index: 35°   Visibility: 0.25mi
Dew Point: 33°   Wind: 3mph
Humidity: 92%   Direction: 240°WSW
Pressure: 30.09"   Gusts: NA
Location:  46.5°N, 120.47°W
Report Text: KYKM 261353Z 24003KT 1/4SM R27/2600V3000FT FG VV002 02/01 A3009 RMK AO2 SFC VIS 1/2 SLP199 T00170006 $
Loading
Personal Weather Stations






























Interactive Weather Map New forecast layout! Learn more

10-Day Weather Forecast

Advertisements
Track Severe Weather on mobile